sensor_id;sensor_type;location;lat;lon;timestamp;pressure;altitude;pressure_sealevel;temperature;humidity
75192;BME280;63771;52.580;9.734;2023-11-21T00:00:50;100577.47;;;8.35;100.00
75192;BME280;63771;52.580;9.734;2023-11-21T00:03:16;100579.41;;;8.38;100.00
75192;BME280;63771;52.580;9.734;2023-11-21T00:05:41;100588.38;;;8.34;100.00
75192;BME280;63771;52.580;9.734;2023-11-21T00:08:07;100588.25;;;8.33;100.00
75192;BME280;63771;52.580;9.734;2023-11-21T00:10:33;100586.03;;;8.36;100.00
75192;BME280;63771;52.580;9.734;2023-11-21T00:12:59;100590.03;;;8.34;100.00
75192;BME280;63771;52.580;9.734;2023-11-21T00:15:24;100587.84;;;8.28;100.00
75192;BME280;63771;52.580;9.734;2023-11-21T00:17:49;100585.94;;;8.26;100.00
75192;BME280;63771;52.580;9.734;2023-11-21T00:20:15;100588.91;;;8.30;100.00
75192;BME280;63771;52.580;9.734;2023-11-21T00:22:40;100600.50;;;8.18;100.00
75192;BME280;63771;52.580;9.734;2023-11-21T00:25:06;100596.94;;;8.16;100.00
75192;BME280;63771;52.580;9.734;2023-11-21T00:27:34;100586.00;;;8.17;100.00
75192;BME280;63771;52.580;9.734;2023-11-21T00:30:00;100591.38;;;8.20;100.00
75192;BME280;63771;52.580;9.734;2023-11-21T00:32:25;100594.94;;;8.22;100.00
75192;BME280;63771;52.580;9.734;2023-11-21T00:34:50;100591.38;;;8.20;100.00
75192;BME280;63771;52.580;9.734;2023-11-21T00:37:16;100597.34;;;8.21;100.00
75192;BME280;63771;52.580;9.734;2023-11-21T00:39:41;100598.09;;;8.20;100.00
75192;BME280;63771;52.580;9.734;2023-11-21T00:42:06;100602.78;;;8.15;100.00
75192;BME280;63771;52.580;9.734;2023-11-21T00:44:32;100598.72;;;8.17;100.00
75192;BME280;63771;52.580;9.734;2023-11-21T00:46:59;100600.66;;;8.20;100.00
75192;BME280;63771;52.580;9.734;2023-11-21T00:49:24;100605.03;;;8.12;100.00
75192;BME280;63771;52.580;9.734;2023-11-21T00:51:49;100606.06;;;8.14;100.00
75192;BME280;63771;52.580;9.734;2023-11-21T00:54:15;100605.56;;;8.18;100.00
75192;BME280;63771;52.580;9.734;2023-11-21T00:56:43;100611.41;;;8.17;100.00
75192;BME280;63771;52.580;9.734;2023-11-21T00:59:08;100614.38;;;8.22;100.00
75192;BME280;63771;52.580;9.734;2023-11-21T01:01:33;100609.28;;;8.22;100.00
75192;BME280;63771;52.580;9.734;2023-11-21T01:03:58;100615.56;;;8.25;100.00
75192;BME280;63771;52.580;9.734;2023-11-21T01:06:24;100611.88;;;8.13;100.00
75192;BME280;63771;52.580;9.734;2023-11-21T01:08:49;100616.50;;;8.17;100.00
75192;BME280;63771;52.580;9.734;2023-11-21T01:11:15;100614.97;;;8.19;100.00
75192;BME280;63771;52.580;9.734;2023-11-21T01:13:41;100619.03;;;8.17;100.00
75192;BME280;63771;52.580;9.734;2023-11-21T01:16:07;100623.34;;;8.18;100.00
75192;BME280;63771;52.580;9.734;2023-11-21T01:18:32;100615.47;;;8.15;100.00
75192;BME280;63771;52.580;9.734;2023-11-21T01:20:58;100619.81;;;8.16;100.00
75192;BME280;63771;52.580;9.734;2023-11-21T01:23:24;100619.09;;;8.08;100.00
75192;BME280;63771;52.580;9.734;2023-11-21T01:25:50;100622.81;;;8.12;100.00
75192;BME280;63771;52.580;9.734;2023-11-21T01:28:16;100632.16;;;8.03;100.00
75192;BME280;63771;52.580;9.734;2023-11-21T01:30:42;100637.22;;;8.03;100.00
75192;BME280;63771;52.580;9.734;2023-11-21T01:33:07;100631.88;;;8.00;100.00
75192;BME280;63771;52.580;9.734;2023-11-21T01:35:33;100635.44;;;8.02;100.00
75192;BME280;63771;52.580;9.734;2023-11-21T01:37:59;100633.97;;;8.04;100.00
75192;BME280;63771;52.580;9.734;2023-11-21T01:40:24;100639.78;;;8.03;100.00
75192;BME280;63771;52.580;9.734;2023-11-21T01:42:50;100638.00;;;8.02;100.00
75192;BME280;63771;52.580;9.734;2023-11-21T01:45:15;100633.78;;;8.02;100.00
75192;BME280;63771;52.580;9.734;2023-11-21T01:47:41;100642.06;;;8.00;100.00
75192;BME280;63771;52.580;9.734;2023-11-21T01:50:08;100640.81;;;8.05;100.00
75192;BME280;63771;52.580;9.734;2023-11-21T01:52:38;100636.88;;;8.08;100.00
75192;BME280;63771;52.580;9.734;2023-11-21T01:55:06;100639.72;;;8.11;100.00
75192;BME280;63771;52.580;9.734;2023-11-21T01:57:33;100638.06;;;8.12;100.00
75192;BME280;63771;52.580;9.734;2023-11-21T02:00:00;100637.78;;;8.09;100.00
75192;BME280;63771;52.580;9.734;2023-11-21T02:02:43;100640.81;;;8.05;100.00
75192;BME280;63771;52.580;9.734;2023-11-21T02:05:14;100639.28;;;8.07;100.00
75192;BME280;63771;52.580;9.734;2023-11-21T02:07:40;100640.94;;;8.06;100.00
75192;BME280;63771;52.580;9.734;2023-11-21T02:10:07;100645.13;;;8.06;100.00
75192;BME280;63771;52.580;9.734;2023-11-21T02:12:33;100646.50;;;8.02;100.00
75192;BME280;63771;52.580;9.734;2023-11-21T02:14:58;100648.91;;;8.01;100.00
75192;BME280;63771;52.580;9.734;2023-11-21T02:17:23;100647.69;;;8.06;100.00
75192;BME280;63771;52.580;9.734;2023-11-21T02:19:49;100652.13;;;8.08;100.00
75192;BME280;63771;52.580;9.734;2023-11-21T02:22:17;100650.22;;;8.06;100.00
75192;BME280;63771;52.580;9.734;2023-11-21T02:24:45;100653.34;;;8.03;100.00
75192;BME280;63771;52.580;9.734;2023-11-21T02:27:10;100655.31;;;8.06;100.00
75192;BME280;63771;52.580;9.734;2023-11-21T02:29:36;100644.44;;;7.98;100.00
75192;BME280;63771;52.580;9.734;2023-11-21T02:32:01;100658.44;;;8.03;100.00
75192;BME280;63771;52.580;9.734;2023-11-21T02:34:26;100656.53;;;8.01;100.00
75192;BME280;63771;52.580;9.734;2023-11-21T02:36:52;100664.56;;;8.05;100.00
75192;BME280;63771;52.580;9.734;2023-11-21T02:39:18;100666.34;;;8.06;100.00
75192;BME280;63771;52.580;9.734;2023-11-21T02:41:44;100669.78;;;8.07;100.00
75192;BME280;63771;52.580;9.734;2023-11-21T02:44:10;100670.06;;;8.10;100.00
75192;BME280;63771;52.580;9.734;2023-11-21T02:46:36;100665.88;;;8.10;100.00
75192;BME280;63771;52.580;9.734;2023-11-21T02:49:04;100666.47;;;8.08;100.00
75192;BME280;63771;52.580;9.734;2023-11-21T02:51:31;100675.16;;;8.10;100.00
75192;BME280;63771;52.580;9.734;2023-11-21T02:53:57;100671.72;;;8.09;100.00
75192;BME280;63771;52.580;9.734;2023-11-21T02:56:25;100669.78;;;8.07;100.00
75192;BME280;63771;52.580;9.734;2023-11-21T02:58:51;100668.91;;;8.06;100.00
75192;BME280;63771;52.580;9.734;2023-11-21T03:01:16;100676.97;;;8.02;100.00
75192;BME280;63771;52.580;9.734;2023-11-21T03:03:42;100682.81;;;8.01;100.00
75192;BME280;63771;52.580;9.734;2023-11-21T03:06:07;100683.59;;;8.00;100.00
75192;BME280;63771;52.580;9.734;2023-11-21T03:08:33;100689.56;;;8.01;100.00
75192;BME280;63771;52.580;9.734;2023-11-21T03:10:58;100687.16;;;8.02;100.00
75192;BME280;63771;52.580;9.734;2023-11-21T03:13:24;100690.75;;;8.04;100.00
75192;BME280;63771;52.580;9.734;2023-11-21T03:15:49;100689.09;;;8.05;100.00
75192;BME280;63771;52.580;9.734;2023-11-21T03:18:14;100690.44;;;8.01;100.00
75192;BME280;63771;52.580;9.734;2023-11-21T03:20:40;100687.03;;;8.01;100.00
75192;BME280;63771;52.580;9.734;2023-11-21T03:23:05;100694.63;;;8.01;100.00
75192;BME280;63771;52.580;9.734;2023-11-21T03:25:30;100698.19;;;8.03;100.00
75192;BME280;63771;52.580;9.734;2023-11-21T03:27:56;100701.03;;;8.06;100.00
75192;BME280;63771;52.580;9.734;2023-11-21T03:30:21;100700.00;;;8.04;100.00
75192;BME280;63771;52.580;9.734;2023-11-21T03:32:47;100705.09;;;8.04;100.00
75192;BME280;63771;52.580;9.734;2023-11-21T03:35:12;100712.41;;;8.01;100.00
75192;BME280;63771;52.580;9.734;2023-11-21T03:37:38;100709.88;;;8.01;100.00
75192;BME280;63771;52.580;9.734;2023-11-21T03:40:07;100718.53;;;8.03;100.00
75192;BME280;63771;52.580;9.734;2023-11-21T03:42:34;100713.94;;;7.99;100.00
75192;BME280;63771;52.580;9.734;2023-11-21T03:44:59;100714.19;;;8.02;100.00
75192;BME280;63771;52.580;9.734;2023-11-21T03:47:26;100714.84;;;7.99;100.00
75192;BME280;63771;52.580;9.734;2023-11-21T03:49:51;100718.59;;;7.94;100.00
75192;BME280;63771;52.580;9.734;2023-11-21T03:52:17;100715.44;;;7.97;100.00
75192;BME280;63771;52.580;9.734;2023-11-21T03:54:42;100720.94;;;8.01;100.00
75192;BME280;63771;52.580;9.734;2023-11-21T03:57:08;100731.97;;;8.02;100.00
75192;BME280;63771;52.580;9.734;2023-11-21T03:59:34;100722.25;;;8.06;100.00
75192;BME280;63771;52.580;9.734;2023-11-21T04:01:59;100732.75;;;8.01;100.00
75192;BME280;63771;52.580;9.734;2023-11-21T04:04:25;100727.66;;;8.01;100.00
75192;BME280;63771;52.580;9.734;2023-11-21T04:06:50;100730.22;;;8.01;100.00
75192;BME280;63771;52.580;9.734;2023-11-21T04:09:17;100743.66;;;8.00;100.00
75192;BME280;63771;52.580;9.734;2023-11-21T04:11:42;100741.38;;;8.03;100.00
75192;BME280;63771;52.580;9.734;2023-11-21T04:14:08;100744.81;;;8.03;100.00
75192;BME280;63771;52.580;9.734;2023-11-21T04:16:33;100743.66;;;8.00;100.00
75192;BME280;63771;52.580;9.734;2023-11-21T04:18:59;100751.00;;;7.97;100.00
75192;BME280;63771;52.580;9.734;2023-11-21T04:21:24;100757.13;;;7.99;100.00
75192;BME280;63771;52.580;9.734;2023-11-21T04:23:49;100757.41;;;8.02;100.00
75192;BME280;63771;52.580;9.734;2023-11-21T04:26:15;100765.47;;;7.98;100.00
75192;BME280;63771;52.580;9.734;2023-11-21T04:28:41;100763.69;;;7.97;100.00
75192;BME280;63771;52.580;9.734;2023-11-21T04:31:06;100761.72;;;8.03;100.00
75192;BME280;63771;52.580;9.734;2023-11-21T04:33:32;100768.75;;;8.05;100.00
75192;BME280;63771;52.580;9.734;2023-11-21T04:35:58;100775.59;;;8.06;100.00
75192;BME280;63771;52.580;9.734;2023-11-21T04:38:23;100777.38;;;8.07;100.00
75192;BME280;63771;52.580;9.734;2023-11-21T04:40:48;100778.16;;;8.06;100.00
75192;BME280;63771;52.580;9.734;2023-11-21T04:43:13;100779.16;;;8.08;100.00
75192;BME280;63771;52.580;9.734;2023-11-21T04:45:39;100788.44;;;8.08;100.00
75192;BME280;63771;52.580;9.734;2023-11-21T04:48:06;100795.31;;;8.09;100.00
75192;BME280;63771;52.580;9.734;2023-11-21T04:50:32;100799.22;;;8.05;100.00
75192;BME280;63771;52.580;9.734;2023-11-21T04:52:57;100797.84;;;8.09;100.00
75192;BME280;63771;52.580;9.734;2023-11-21T04:55:22;100794.28;;;8.07;100.00
75192;BME280;63771;52.580;9.734;2023-11-21T04:57:48;100801.91;;;8.07;100.00
75192;BME280;63771;52.580;9.734;2023-11-21T05:00:13;100805.06;;;8.04;100.00
75192;BME280;63771;52.580;9.734;2023-11-21T05:02:40;100805.78;;;8.03;100.00
75192;BME280;63771;52.580;9.734;2023-11-21T05:05:07;100810.16;;;8.04;100.00
75192;BME280;63771;52.580;9.734;2023-11-21T05:07:33;100814.94;;;8.01;100.00
75192;BME280;63771;52.580;9.734;2023-11-21T05:10:00;100824.97;;;8.00;100.00
75192;BME280;63771;52.580;9.734;2023-11-21T05:12:30;100824.06;;;7.99;100.00
75192;BME280;63771;52.580;9.734;2023-11-21T05:14:58;100821.66;;;8.01;100.00
75192;BME280;63771;52.580;9.734;2023-11-21T05:17:23;100826.28;;;8.05;100.00
75192;BME280;63771;52.580;9.734;2023-11-21T05:19:49;100830.31;;;8.03;100.00
75192;BME280;63771;52.580;9.734;2023-11-21T05:22:14;100835.38;;;8.03;100.00
75192;BME280;63771;52.580;9.734;2023-11-21T05:24:39;100831.69;;;7.99;100.00
75192;BME280;63771;52.580;9.734;2023-11-21T05:27:05;100836.00;;;8.00;100.00
75192;BME280;63771;52.580;9.734;2023-11-21T05:29:30;100835.13;;;8.00;100.00
75192;BME280;63771;52.580;9.734;2023-11-21T05:31:56;100842.75;;;8.00;100.00
75192;BME280;63771;52.580;9.734;2023-11-21T05:34:21;100841.22;;;8.02;100.00
75192;BME280;63771;52.580;9.734;2023-11-21T05:36:49;100844.06;;;8.05;100.00
75192;BME280;63771;52.580;9.734;2023-11-21T05:39:14;100850.94;;;8.06;100.00
75192;BME280;63771;52.580;9.734;2023-11-21T05:41:42;100855.44;;;8.00;100.00
75192;BME280;63771;52.580;9.734;2023-11-21T05:44:08;100861.41;;;8.00;100.00
75192;BME280;63771;52.580;9.734;2023-11-21T05:46:34;100865.59;;;8.00;100.00
75192;BME280;63771;52.580;9.734;2023-11-21T05:48:59;100871.34;;;7.89;100.00
75192;BME280;63771;52.580;9.734;2023-11-21T05:51:25;100871.47;;;7.81;100.00
75192;BME280;63771;52.580;9.734;2023-11-21T05:53:50;100885.97;;;7.82;100.00
75192;BME280;63771;52.580;9.734;2023-11-21T05:56:16;100891.53;;;7.78;100.00
75192;BME280;63771;52.580;9.734;2023-11-21T05:58:42;100892.28;;;7.69;100.00
75192;BME280;63771;52.580;9.734;2023-11-21T06:01:07;100899.72;;;7.67;100.00
75192;BME280;63771;52.580;9.734;2023-11-21T06:03:34;100900.34;;;7.56;100.00
75192;BME280;63771;52.580;9.734;2023-11-21T06:05:59;100910.34;;;7.46;100.00
75192;BME280;63771;52.580;9.734;2023-11-21T06:08:24;100911.44;;;7.48;100.00
75192;BME280;63771;52.580;9.734;2023-11-21T06:10:50;100913.97;;;7.48;100.00
75192;BME280;63771;52.580;9.734;2023-11-21T06:13:15;100917.84;;;7.44;100.00
75192;BME280;63771;52.580;9.734;2023-11-21T06:15:41;100922.63;;;7.32;100.00
75192;BME280;63771;52.580;9.734;2023-11-21T06:18:07;100928.72;;;7.35;100.00
75192;BME280;63771;52.580;9.734;2023-11-21T06:20:35;100935.00;;;7.29;100.00
75192;BME280;63771;52.580;9.734;2023-11-21T06:23:02;100930.81;;;7.30;100.00
75192;BME280;63771;52.580;9.734;2023-11-21T06:25:29;100939.94;;;7.37;100.00
75192;BME280;63771;52.580;9.734;2023-11-21T06:27:54;100948.16;;;7.34;100.00
75192;BME280;63771;52.580;9.734;2023-11-21T06:30:19;100949.94;;;7.26;100.00
75192;BME280;63771;52.580;9.734;2023-11-21T06:32:45;100950.69;;;7.34;100.00
75192;BME280;63771;52.580;9.734;2023-11-21T06:35:11;100953.97;;;7.33;100.00
75192;BME280;63771;52.580;9.734;2023-11-21T06:37:37;100960.53;;;7.22;100.00
75192;BME280;63771;52.580;9.734;2023-11-21T06:40:02;100964.09;;;7.24;100.00
75192;BME280;63771;52.580;9.734;2023-11-21T06:42:29;100969.63;;;7.20;100.00
75192;BME280;63771;52.580;9.734;2023-11-21T06:44:55;100986.06;;;7.15;100.00
75192;BME280;63771;52.580;9.734;2023-11-21T06:47:24;100991.06;;;6.98;100.00
75192;BME280;63771;52.580;9.734;2023-11-21T06:49:50;100993.75;;;6.99;100.00
75192;BME280;63771;52.580;9.734;2023-11-21T06:52:16;100997.03;;;6.90;100.00
75192;BME280;63771;52.580;9.734;2023-11-21T06:54:41;101004.34;;;6.95;100.00
75192;BME280;63771;52.580;9.734;2023-11-21T06:57:07;101017.78;;;6.94;100.00
75192;BME280;63771;52.580;9.734;2023-11-21T06:59:32;101019.38;;;6.94;100.00
75192;BME280;63771;52.580;9.734;2023-11-21T07:01:58;101028.34;;;6.90;100.00
75192;BME280;63771;52.580;9.734;2023-11-21T07:04:24;101032.97;;;6.86;100.00
75192;BME280;63771;52.580;9.734;2023-11-21T07:06:50;101039.81;;;6.87;100.00
75192;BME280;63771;52.580;9.734;2023-11-21T07:09:16;101045.31;;;6.83;100.00
75192;BME280;63771;52.580;9.734;2023-11-21T07:11:41;101054.00;;;6.85;100.00
75192;BME280;63771;52.580;9.734;2023-11-21T07:14:07;101055.03;;;6.87;100.00
75192;BME280;63771;52.580;9.734;2023-11-21T07:16:37;101056.81;;;6.88;100.00
75192;BME280;63771;52.580;9.734;2023-11-21T07:19:06;101050.28;;;6.90;100.00
75192;BME280;63771;52.580;9.734;2023-11-21T07:21:35;101050.38;;;6.83;100.00
75192;BME280;63771;52.580;9.734;2023-11-21T07:24:01;101059.06;;;6.85;100.00
75192;BME280;63771;52.580;9.734;2023-11-21T07:26:27;101057.56;;;6.87;100.00
75192;BME280;63771;52.580;9.734;2023-11-21T07:28:53;101066.22;;;6.89;100.00
75192;BME280;63771;52.580;9.734;2023-11-21T07:31:18;101072.34;;;6.91;100.00
75192;BME280;63771;52.580;9.734;2023-11-21T07:33:45;101076.53;;;6.90;100.00
75192;BME280;63771;52.580;9.734;2023-11-21T07:36:12;101081.00;;;6.84;100.00
75192;BME280;63771;52.580;9.734;2023-11-21T07:38:38;101086.63;;;6.82;100.00
75192;BME280;63771;52.580;9.734;2023-11-21T07:41:04;101095.13;;;6.82;100.00
75192;BME280;63771;52.580;9.734;2023-11-21T07:43:29;101093.91;;;6.78;100.00
75192;BME280;63771;52.580;9.734;2023-11-21T07:46:03;101098.56;;;6.83;100.00
75192;BME280;63771;52.580;9.734;2023-11-21T07:48:32;101104.72;;;6.85;100.00
75192;BME280;63771;52.580;9.734;2023-11-21T07:50:58;101107.53;;;6.88;100.00
75192;BME280;63771;52.580;9.734;2023-11-21T07:53:27;101107.72;;;6.89;100.00
75192;BME280;63771;52.580;9.734;2023-11-21T07:56:07;101107.88;;;6.91;100.00
75192;BME280;63771;52.580;9.734;2023-11-21T07:58:35;101115.91;;;6.87;100.00
75192;BME280;63771;52.580;9.734;2023-11-21T08:01:00;101117.81;;;6.80;100.00
75192;BME280;63771;52.580;9.734;2023-11-21T08:03:26;101124.09;;;6.84;100.00
75192;BME280;63771;52.580;9.734;2023-11-21T08:05:53;101131.84;;;6.86;100.00
75192;BME280;63771;52.580;9.734;2023-11-21T08:08:18;101141.38;;;6.79;100.00
75192;BME280;63771;52.580;9.734;2023-11-21T08:10:44;101144.00;;;6.72;100.00
75192;BME280;63771;52.580;9.734;2023-11-21T08:13:13;101154.13;;;6.72;100.00
75192;BME280;63771;52.580;9.734;2023-11-21T08:15:40;101158.56;;;6.66;100.00
75192;BME280;63771;52.580;9.734;2023-11-21T08:18:05;101160.56;;;6.69;100.00
75192;BME280;63771;52.580;9.734;2023-11-21T08:20:32;101169.13;;;6.62;100.00
75192;BME280;63771;52.580;9.734;2023-11-21T08:22:58;101172.66;;;6.56;100.00
75192;BME280;63771;52.580;9.734;2023-11-21T08:25:23;101163.56;;;6.58;100.00
75192;BME280;63771;52.580;9.734;2023-11-21T08:27:49;101168.22;;;6.62;100.00
75192;BME280;63771;52.580;9.734;2023-11-21T08:30:14;101164.53;;;6.67;100.00
75192;BME280;63771;52.580;9.734;2023-11-21T08:32:42;101164.53;;;6.67;100.00
75192;BME280;63771;52.580;9.734;2023-11-21T08:35:08;101165.78;;;6.70;100.00
75192;BME280;63771;52.580;9.734;2023-11-21T08:37:33;101166.41;;;6.76;100.00
75192;BME280;63771;52.580;9.734;2023-11-21T08:40:03;101166.88;;;6.81;100.00
75192;BME280;63771;52.580;9.734;2023-11-21T08:42:28;101178.88;;;6.91;100.00
75192;BME280;63771;52.580;9.734;2023-11-21T08:44:55;101180.34;;;6.89;100.00
75192;BME280;63771;52.580;9.734;2023-11-21T08:47:22;101181.06;;;6.79;100.00
75192;BME280;63771;52.580;9.734;2023-11-21T08:49:49;101184.03;;;6.84;100.00
75192;BME280;63771;52.580;9.734;2023-11-21T08:52:18;101191.41;;;6.89;100.00
75192;BME280;63771;52.580;9.734;2023-11-21T08:54:43;101197.84;;;6.94;100.00
75192;BME280;63771;52.580;9.734;2023-11-21T08:57:10;101207.41;;;6.97;100.00
75192;BME280;63771;52.580;9.734;2023-11-21T08:59:35;101206.38;;;6.95;100.00
75192;BME280;63771;52.580;9.734;2023-11-21T09:02:01;101214.53;;;6.92;100.00
75192;BME280;63771;52.580;9.734;2023-11-21T09:04:26;101209.63;;;6.94;100.00
75192;BME280;63771;52.580;9.734;2023-11-21T09:06:52;101215.03;;;6.97;100.00
75192;BME280;63771;52.580;9.734;2023-11-21T09:09:17;101220.50;;;6.93;100.00
75192;BME280;63771;52.580;9.734;2023-11-21T09:11:44;101229.50;;;6.98;100.00
75192;BME280;63771;52.580;9.734;2023-11-21T09:14:11;101222.00;;;6.91;100.00
75192;BME280;63771;52.580;9.734;2023-11-21T09:16:38;101235.47;;;6.98;100.00
75192;BME280;63771;52.580;9.734;2023-11-21T09:19:04;101243.50;;;6.94;100.00
75192;BME280;63771;52.580;9.734;2023-11-21T09:21:30;101240.50;;;6.90;100.00
75192;BME280;63771;52.580;9.734;2023-11-21T09:23:55;101245.56;;;6.90;100.00
75192;BME280;63771;52.580;9.734;2023-11-21T09:26:21;101252.09;;;6.88;100.00
75192;BME280;63771;52.580;9.734;2023-11-21T09:28:46;101256.88;;;6.85;100.00
75192;BME280;63771;52.580;9.734;2023-11-21T09:31:13;101270.03;;;6.89;100.00
75192;BME280;63771;52.580;9.734;2023-11-21T09:33:43;101271.97;;;6.92;100.00
75192;BME280;63771;52.580;9.734;2023-11-21T09:36:11;101273.63;;;6.91;100.00
75192;BME280;63771;52.580;9.734;2023-11-21T09:38:38;101278.59;;;6.83;100.00
75192;BME280;63771;52.580;9.734;2023-11-21T09:41:06;101282.78;;;6.82;100.00
75192;BME280;63771;52.580;9.734;2023-11-21T09:43:37;101295.41;;;6.89;100.00
75192;BME280;63771;52.580;9.734;2023-11-21T09:46:06;101290.72;;;6.85;100.00
75192;BME280;63771;52.580;9.734;2023-11-21T09:48:36;101290.72;;;6.85;100.00
75192;BME280;63771;52.580;9.734;2023-11-21T09:51:03;101300.38;;;6.80;100.00
75192;BME280;63771;52.580;9.734;2023-11-21T09:53:31;101299.97;;;6.85;100.00
75192;BME280;63771;52.580;9.734;2023-11-21T09:55:57;101310.44;;;6.88;100.00
75192;BME280;63771;52.580;9.734;2023-11-21T09:58:22;101310.63;;;6.89;100.00
75192;BME280;63771;52.580;9.734;2023-11-21T10:00:53;101310.03;;;6.92;100.00
75192;BME280;63771;52.580;9.734;2023-11-21T10:03:18;101312.97;;;6.88;100.00
75192;BME280;63771;52.580;9.734;2023-11-21T10:05:44;101318.22;;;6.89;100.00
75192;BME280;63771;52.580;9.734;2023-11-21T10:08:11;101320.56;;;6.88;100.00
75192;BME280;63771;52.580;9.734;2023-11-21T10:10:38;101320.97;;;6.84;100.00
75192;BME280;63771;52.580;9.734;2023-11-21T10:13:06;101325.16;;;6.83;100.00
75192;BME280;63771;52.580;9.734;2023-11-21T10:15:35;101326.03;;;6.84;100.00
75192;BME280;63771;52.580;9.734;2023-11-21T10:18:07;101330.16;;;6.90;100.00
75192;BME280;63771;52.580;9.734;2023-11-21T10:20:33;101334.50;;;6.91;100.00
75192;BME280;63771;52.580;9.734;2023-11-21T10:22:59;101337.44;;;6.87;100.00
75192;BME280;63771;52.580;9.734;2023-11-21T10:25:26;101335.00;;;6.80;100.00
75192;BME280;63771;52.580;9.734;2023-11-21T10:27:57;101347.28;;;6.84;100.00
75192;BME280;63771;52.580;9.734;2023-11-21T10:30:27;101343.59;;;6.89;100.00
75192;BME280;63771;52.580;9.734;2023-11-21T10:32:59;101343.41;;;6.88;100.00
75192;BME280;63771;52.580;9.734;2023-11-21T10:35:47;101349.84;;;6.93;100.00
75192;BME280;63771;52.580;9.734;2023-11-21T10:38:16;101349.44;;;6.97;100.00
75192;BME280;63771;52.580;9.734;2023-11-21T10:40:42;101354.88;;;7.00;100.00
75192;BME280;63771;52.580;9.734;2023-11-21T10:43:10;101359.59;;;6.97;100.00
75192;BME280;63771;52.580;9.734;2023-11-21T10:45:37;101358.69;;;6.96;100.00
75192;BME280;63771;52.580;9.734;2023-11-21T10:48:08;101359.59;;;6.97;100.00
75192;BME280;63771;52.580;9.734;2023-11-21T10:50:35;101369.25;;;6.92;100.00
75192;BME280;63771;52.580;9.734;2023-11-21T10:53:04;101376.56;;;6.89;99.76
75192;BME280;63771;52.580;9.734;2023-11-21T10:55:31;101373.84;;;6.88;100.00
75192;BME280;63771;52.580;9.734;2023-11-21T10:57:59;101376.56;;;6.89;100.00
75192;BME280;63771;52.580;9.734;2023-11-21T11:00:26;101372.03;;;6.87;99.17
75192;BME280;63771;52.580;9.734;2023-11-21T11:02:53;101374.56;;;6.87;100.00
75192;BME280;63771;52.580;9.734;2023-11-21T11:05:20;101365.16;;;6.86;98.49
75192;BME280;63771;52.580;9.734;2023-11-21T11:07:48;101369.66;;;6.88;99.25
75192;BME280;63771;52.580;9.734;2023-11-21T11:10:19;101371.47;;;6.89;99.63
75192;BME280;63771;52.580;9.734;2023-11-21T11:12:47;101375.31;;;6.86;99.36
75192;BME280;63771;52.580;9.734;2023-11-21T11:15:15;101375.41;;;6.94;100.00
75192;BME280;63771;52.580;9.734;2023-11-21T11:17:40;101380.94;;;6.99;100.00
75192;BME280;63771;52.580;9.734;2023-11-21T11:20:08;101373.28;;;7.06;100.00
75192;BME280;63771;52.580;9.734;2023-11-21T11:22:56;101380.47;;;7.10;100.00
75192;BME280;63771;52.580;9.734;2023-11-21T11:25:35;101380.28;;;7.09;99.52
75192;BME280;63771;52.580;9.734;2023-11-21T11:32:08;101396.41;;;7.09;99.63
75192;BME280;63771;52.580;9.734;2023-11-21T11:34:53;101407.53;;;7.02;99.16
75192;BME280;63771;52.580;9.734;2023-11-21T11:37:21;101401.44;;;7.00;97.50
75192;BME280;63771;52.580;9.734;2023-11-21T11:39:49;101414.16;;;6.93;98.12
75192;BME280;63771;52.580;9.734;2023-11-21T11:42:16;101410.34;;;6.97;98.41
75192;BME280;63771;52.580;9.734;2023-11-21T11:47:29;101415.75;;;7.00;98.70
75192;BME280;63771;52.580;9.734;2023-11-21T11:50:07;101421.38;;;6.97;98.32
75192;BME280;63771;52.580;9.734;2023-11-21T11:52:40;101423.91;;;6.97;99.46
75192;BME280;63771;52.580;9.734;2023-11-21T11:55:07;101424.75;;;7.05;100.00
75192;BME280;63771;52.580;9.734;2023-11-21T11:57:35;101429.31;;;7.00;99.58
75192;BME280;63771;52.580;9.734;2023-11-21T12:00:07;101424.66;;;6.96;99.45
75192;BME280;63771;52.580;9.734;2023-11-21T12:02:38;101425.16;;;7.01;98.71
75192;BME280;63771;52.580;9.734;2023-11-21T12:05:11;101425.91;;;7.00;98.57
75192;BME280;63771;52.580;9.734;2023-11-21T12:10:30;101419.81;;;6.91;98.59
75192;BME280;63771;52.580;9.734;2023-11-21T12:13:00;101425.94;;;6.93;99.64
75192;BME280;63771;52.580;9.734;2023-11-21T12:15:27;101435.69;;;6.97;99.65
75192;BME280;63771;52.580;9.734;2023-11-21T12:17:55;101431.28;;;7.03;99.07
75192;BME280;63771;52.580;9.734;2023-11-21T12:20:23;101442.50;;;7.05;97.97
75192;BME280;63771;52.580;9.734;2023-11-21T12:22:54;101447.59;;;7.05;97.68
75192;BME280;63771;52.580;9.734;2023-11-21T12:25:24;101445.69;;;7.11;97.60
75192;BME280;63771;52.580;9.734;2023-11-21T12:27:52;101443.06;;;7.18;98.81
75192;BME280;63771;52.580;9.734;2023-11-21T12:30:20;101454.69;;;7.16;98.77
75192;BME280;63771;52.580;9.734;2023-11-21T12:32:54;101462.38;;;7.09;96.22
75192;BME280;63771;52.580;9.734;2023-11-21T12:35:23;101462.38;;;7.09;96.49
75192;BME280;63771;52.580;9.734;2023-11-21T12:37:49;101468.19;;;7.08;96.00
75192;BME280;63771;52.580;9.734;2023-11-21T12:40:16;101464.66;;;6.99;94.77
75192;BME280;63771;52.580;9.734;2023-11-21T12:42:43;101463.69;;;7.05;95.80
75192;BME280;63771;52.580;9.734;2023-11-21T12:45:29;101463.25;;;7.10;96.75
75192;BME280;63771;52.580;9.734;2023-11-21T12:47:56;101470.06;;;7.18;97.81
75192;BME280;63771;52.580;9.734;2023-11-21T12:50:26;101479.47;;;7.19;96.01
75192;BME280;63771;52.580;9.734;2023-11-21T12:53:03;101486.78;;;7.16;93.44
75192;BME280;63771;52.580;9.734;2023-11-21T12:55:34;101488.81;;;7.11;93.81
75192;BME280;63771;52.580;9.734;2023-11-21T12:58:03;101484.50;;;7.10;93.29